Time,TemperatureF,DewpointF,PressureIn,WindDirection,WindDirectionDegrees,WindSpeedMPH,WindSpeedGustMPH,Humidity,HourlyPrecipIn,Conditions,Clouds,dailyrainin,SoftwareType,DateUTC
2013-05-16 00:02:00,49.0,48.0,30.04,North,-999,0.0,0.0,98,0.00,,,0.10,,2013-05-16 07:02:00,
2013-05-16 00:12:00,49.0,48.0,30.04,North,-999,0.0,0.0,98,0.00,,,0.10,,2013-05-16 07:12:00,
2013-05-16 00:23:00,49.0,48.0,30.04,North,-999,0.0,0.0,98,0.00,,,0.10,,2013-05-16 07:23:00,
2013-05-16 00:34:00,50.0,49.0,30.04,North,-999,0.0,0.0,98,0.00,,,0.10,,2013-05-16 07:34:00,
2013-05-16 00:44:00,50.0,49.0,30.04,North,-999,0.0,0.0,98,0.00,,,0.10,,2013-05-16 07:44:00,
2013-05-16 00:54:00,50.0,49.0,30.04,North,-999,0.0,0.0,98,0.01,,,0.11,,2013-05-16 07:54:00,
2013-05-16 01:03:00,50.0,49.0,30.04,North,-999,0.0,0.0,98,0.01,,,0.11,,2013-05-16 08:03:00,
2013-05-16 01:13:00,50.0,49.0,30.04,North,-999,0.0,0.0,98,0.01,,,0.11,,2013-05-16 08:13:00,
2013-05-16 01:23:00,50.0,49.0,30.04,North,-999,0.0,0.0,98,0.01,,,0.11,,2013-05-16 08:23:00,
2013-05-16 01:34:00,50.0,49.0,30.03,North,-999,0.0,0.0,98,0.02,,,0.12,,2013-05-16 08:34:00,
2013-05-16 01:44:00,50.0,49.0,30.03,North,-999,0.0,0.0,98,0.02,,,0.12,,2013-05-16 08:44:00,
2013-05-16 01:54:00,50.0,49.0,30.03,NNW,337,0.0,1.0,98,0.01,,,0.12,,2013-05-16 08:54:00,
2013-05-16 02:04:00,50.0,49.0,30.03,North,-999,0.0,0.0,98,0.02,,,0.13,,2013-05-16 09:04:00,
2013-05-16 02:14:00,50.0,49.0,30.03,North,-999,0.0,0.0,98,0.03,,,0.15,,2013-05-16 09:14:00,
2013-05-16 02:23:00,50.0,49.0,30.03,North,-999,0.0,0.0,98,0.03,,,0.15,,2013-05-16 09:23:00,
2013-05-16 02:35:00,50.0,49.0,30.03,North,-999,0.0,0.0,98,0.02,,,0.15,,2013-05-16 09:35:00,
2013-05-16 02:45:00,50.0,49.0,30.03,North,-999,0.0,0.0,98,0.02,,,0.15,,2013-05-16 09:45:00,
2013-05-16 02:55:00,50.0,49.0,30.02,North,-999,0.0,0.0,98,0.02,,,0.15,,2013-05-16 09:55:00,
2013-05-16 03:04:00,50.0,49.0,30.02,North,-999,0.0,0.0,98,0.01,,,0.15,,2013-05-16 10:04:00,
2013-05-16 03:14:00,50.0,49.0,30.02,North,-999,0.0,0.0,98,0.00,,,0.15,,2013-05-16 10:14:00,
2013-05-16 03:24:00,50.0,49.0,30.02,North,-999,0.0,0.0,98,0.00,,,0.15,,2013-05-16 10:24:00,
2013-05-16 03:35:00,50.0,49.0,30.01,NNE,22,0.0,2.0,98,0.01,,,0.16,,2013-05-16 10:35:00,
2013-05-16 03:45:00,50.0,49.0,30.01,NNE,22,0.0,2.0,98,0.01,,,0.16,,2013-05-16 10:45:00,
2013-05-16 03:56:00,50.0,49.0,30.01,NNE,22,0.0,1.0,98,0.01,,,0.16,,2013-05-16 10:56:00,
2013-05-16 04:05:00,50.0,49.0,30.01,North,-999,0.0,0.0,98,0.01,,,0.16,,2013-05-16 11:05:00,
2013-05-16 04:14:00,50.0,49.0,30.01,North,-999,0.0,0.0,98,0.01,,,0.16,,2013-05-16 11:14:00,
2013-05-16 04:25:00,50.0,49.0,30.01,NNE,22,0.0,1.0,98,0.02,,,0.17,,2013-05-16 11:25:00,
2013-05-16 04:35:00,50.0,49.0,30.01,North,-999,0.0,0.0,98,0.01,,,0.17,,2013-05-16 11:35:00,
2013-05-16 04:45:00,50.0,49.0,30.01,North,-999,0.0,0.0,98,0.01,,,0.17,,2013-05-16 11:45:00,
2013-05-16 04:56:00,50.0,49.0,30.01,North,-999,0.0,0.0,98,0.01,,,0.17,,2013-05-16 11:56:00,
2013-05-16 05:06:00,50.0,49.0,30.01,North,-999,0.0,0.0,98,0.01,,,0.17,,2013-05-16 12:06:00,
2013-05-16 05:13:00,50.0,49.0,30.01,North,-999,0.0,0.0,98,0.01,,,0.17,,2013-05-16 12:13:00,
2013-05-16 05:23:00,50.0,49.0,30.00,North,-999,0.0,0.0,98,0.00,,,0.17,,2013-05-16 12:23:00,
2013-05-16 05:34:00,50.0,49.0,30.00,West,270,0.0,1.0,98,0.00,,,0.17,,2013-05-16 12:34:00,
2013-05-16 05:44:00,50.0,49.0,30.00,West,270,0.0,1.0,98,0.00,,,0.17,,2013-05-16 12:44:00,
2013-05-16 05:53:00,50.0,49.0,30.00,North,-999,0.0,0.0,98,0.00,,,0.17,,2013-05-16 12:53:00,
2013-05-16 06:04:00,50.0,50.0,30.00,North,-999,0.0,0.0,99,0.00,,,0.17,,2013-05-16 13:04:00,
2013-05-16 06:11:00,50.0,50.0,30.00,North,-999,0.0,0.0,99,0.00,,,0.17,,2013-05-16 13:11:00,
2013-05-16 06:26:00,50.0,50.0,30.00,WSW,247,0.0,1.0,99,0.00,,,0.17,,2013-05-16 13:26:00,
2013-05-16 06:35:00,50.0,49.0,30.00,West,270,0.0,1.0,98,0.00,,,0.17,,2013-05-16 13:35:00,
2013-05-16 06:43:00,50.0,49.0,30.00,West,270,0.0,1.0,98,0.00,,,0.17,,2013-05-16 13:43:00,
2013-05-16 06:54:00,50.0,49.0,30.01,West,270,0.0,1.0,98,0.00,,,0.17,,2013-05-16 13:54:00,
2013-05-16 07:05:00,50.0,49.0,30.00,North,-999,0.0,0.0,98,0.00,,,0.17,,2013-05-16 14:05:00,
2013-05-16 07:15:00,50.0,49.0,30.00,North,-999,0.0,0.0,98,0.00,,,0.17,,2013-05-16 14:15:00,
2013-05-16 07:23:00,51.0,50.0,30.00,SE,135,0.0,1.0,98,0.00,,,0.17,,2013-05-16 14:23:00,
2013-05-16 07:37:00,51.0,50.0,30.01,NNE,22,0.0,1.0,98,0.00,,,0.17,,2013-05-16 14:37:00,
2013-05-16 07:47:00,51.0,50.0,30.01,NNE,22,0.0,1.0,98,0.00,,,0.17,,2013-05-16 14:47:00,
2013-05-16 07:55:00,51.0,50.0,30.01,North,-999,0.0,0.0,98,0.00,,,0.17,,2013-05-16 14:55:00,
2013-05-16 08:08:00,52.0,51.0,30.01,North,-999,0.0,0.0,98,0.00,,,0.17,,2013-05-16 15:08:00,
2013-05-16 08:17:00,52.0,51.0,30.01,North,-999,0.0,0.0,98,0.00,,,0.17,,2013-05-16 15:17:00,
2013-05-16 08:28:00,52.0,51.0,30.01,East,90,0.0,1.0,97,0.00,,,0.17,,2013-05-16 15:28:00,
2013-05-16 08:40:00,53.0,52.0,30.01,North,-999,0.0,0.0,97,0.00,,,0.17,,2013-05-16 15:40:00,
2013-05-16 08:50:00,53.0,52.0,30.01,North,-999,0.0,0.0,97,0.00,,,0.17,,2013-05-16 15:50:00,
2013-05-16 09:00:00,53.0,52.0,30.01,North,-999,0.0,0.0,97,0.00,,,0.17,,2013-05-16 16:00:00,
2013-05-16 09:09:00,54.0,53.0,30.01,North,-999,0.0,0.0,97,0.00,,,0.17,,2013-05-16 16:09:00,
2013-05-16 09:19:00,54.0,53.0,30.01,North,-999,0.0,0.0,97,0.00,,,0.17,,2013-05-16 16:19:00,
2013-05-16 09:30:00,54.0,53.0,30.00,North,-999,0.0,0.0,96,0.00,,,0.17,,2013-05-16 16:30:00,
2013-05-16 09:40:00,55.0,-99.9,30.01,North,-999,0.0,0.0,95,0.00,,,0.17,,2013-05-16 16:40:00,
2013-05-16 09:50:00,55.0,54.0,30.01,North,-999,0.0,0.0,95,0.00,,,0.17,,2013-05-16 16:50:00,
2013-05-16 10:00:00,55.0,54.0,30.00,North,-999,0.0,0.0,95,0.00,,,0.17,,2013-05-16 17:00:00,
2013-05-16 10:10:00,56.0,54.0,30.00,East,90,0.0,1.0,94,0.00,,,0.17,,2013-05-16 17:10:00,
2013-05-16 10:20:00,56.0,54.0,30.00,East,90,0.0,1.0,94,0.00,,,0.17,,2013-05-16 17:20:00,
2013-05-16 10:30:00,57.0,53.0,30.00,WSW,247,0.0,1.0,87,0.00,,,0.17,,2013-05-16 17:30:00,
2013-05-16 10:40:00,58.0,54.0,30.00,SW,225,0.0,1.0,86,0.00,,,0.17,,2013-05-16 17:40:00,
2013-05-16 10:50:00,57.0,-99.9,30.00,ENE,67,0.0,1.0,89,0.00,,,0.17,,2013-05-16 17:50:00,
2013-05-16 11:00:00,57.0,-99.9,30.00,ENE,67,0.0,1.0,89,0.00,,,0.17,,2013-05-16 18:00:00,
2013-05-16 11:10:00,57.0,53.0,30.00,North,-999,0.0,0.0,85,0.00,,,0.17,,2013-05-16 18:10:00,
2013-05-16 11:20:00,57.0,53.0,30.00,North,-999,0.0,0.0,85,0.00,,,0.17,,2013-05-16 18:20:00,
2013-05-16 11:30:00,-999.0,-99.9,30.00,NNE,22,1.0,2.0,84,0.00,,,0.17,,2013-05-16 18:30:00,
2013-05-16 11:40:00,-999.0,-99.9,29.99,East,90,0.0,1.0,84,0.00,,,0.17,,2013-05-16 18:40:00,
2013-05-16 11:50:00,-999.0,-99.9,29.99,East,90,0.0,1.0,84,0.00,,,0.17,,2013-05-16 18:50:00,
2013-05-16 12:00:00,-999.0,-99.9,29.99,NNE,22,1.0,4.0,80,0.00,,,0.17,,2013-05-16 19:00:00,
2013-05-16 12:10:00,60.0,53.0,29.98,SSE,157,0.0,1.0,77,0.00,,,0.17,,2013-05-16 19:10:00,
2013-05-16 12:20:00,60.0,53.0,29.98,SSE,157,0.0,1.0,77,0.00,,,0.17,,2013-05-16 19:20:00,
2013-05-16 12:30:00,61.0,54.0,29.98,ESE,112,0.0,1.0,78,0.00,,,0.17,,2013-05-16 19:30:00,
2013-05-16 12:40:00,62.0,-99.9,29.98,NNW,337,0.0,2.0,81,0.00,,,0.17,,2013-05-16 19:40:00,
2013-05-16 12:50:00,62.0,-99.9,29.98,NNW,337,0.0,2.0,81,0.00,,,0.17,,2013-05-16 19:50:00,
2013-05-16 13:00:00,63.0,-99.9,29.97,ENE,67,0.0,1.0,72,0.00,,,0.17,,2013-05-16 20:00:00,
2013-05-16 13:10:00,-999.0,-99.9,29.97,WSW,247,1.0,4.0,78,0.00,,,0.17,,2013-05-16 20:10:00,
2013-05-16 13:20:00,63.0,53.0,29.96,NE,45,1.0,2.0,71,0.00,,,0.17,,2013-05-16 20:20:00,
2013-05-16 13:30:00,63.0,53.0,29.96,NE,45,1.0,2.0,71,0.00,,,0.17,,2013-05-16 20:30:00,
2013-05-16 13:40:00,-999.0,-99.9,29.96,WSW,247,1.0,5.0,70,0.00,,,0.17,,2013-05-16 20:40:00,
2013-05-16 13:50:00,64.0,55.0,29.96,NE,45,1.0,5.0,73,0.00,,,0.17,,2013-05-16 20:50:00,
2013-05-16 14:00:00,64.0,55.0,29.96,NE,45,1.0,5.0,73,0.00,,,0.17,,2013-05-16 21:00:00,
2013-05-16 14:10:00,66.0,-99.9,29.95,NE,45,1.0,4.0,66,0.00,,,0.17,,2013-05-16 21:10:00,
2013-05-16 14:20:00,66.0,54.0,29.95,NE,45,1.0,4.0,66,0.00,,,0.17,,2013-05-16 21:20:00,
2013-05-16 14:29:00,64.0,54.0,29.94,NE,45,1.0,3.0,69,0.00,,,0.17,,2013-05-16 21:29:00,
2013-05-16 14:38:00,66.0,54.0,29.94,WSW,247,1.0,4.0,66,0.00,,,0.17,,2013-05-16 21:38:00,
2013-05-16 14:50:00,66.0,54.0,29.94,WSW,247,1.0,4.0,66,0.00,,,0.17,,2013-05-16 21:50:00,
2013-05-16 15:00:00,-999.0,-99.9,29.93,ENE,67,1.0,3.0,65,0.00,,,0.17,,2013-05-16 22:00:00,
2013-05-16 15:07:00,69.0,54.0,29.93,North,0,1.0,3.0,59,0.00,,,0.17,,2013-05-16 22:07:00,
2013-05-16 15:20:00,69.0,54.0,29.93,North,0,1.0,3.0,59,0.00,,,0.17,,2013-05-16 22:20:00,
2013-05-16 15:30:00,68.0,54.0,29.93,WSW,247,1.0,4.0,61,0.00,,,0.17,,2013-05-16 22:30:00,
2013-05-16 15:40:00,68.0,56.0,29.92,WSW,247,1.0,3.0,66,0.00,,,0.17,,2013-05-16 22:40:00,
2013-05-16 15:50:00,68.0,56.0,29.92,WSW,247,1.0,3.0,66,0.00,,,0.17,,2013-05-16 22:50:00,
2013-05-16 16:00:00,67.0,55.0,29.92,NNE,22,0.0,2.0,65,0.00,,,0.17,,2013-05-16 23:00:00,
2013-05-16 16:06:00,68.0,54.0,29.91,ENE,67,1.0,4.0,62,0.00,,,0.17,,2013-05-16 23:06:00,
2013-05-16 16:16:00,68.0,55.0,29.91,NNE,22,1.0,5.0,64,0.00,,,0.17,,2013-05-16 23:16:00,
2013-05-16 16:24:00,68.0,55.0,29.91,NNE,22,1.0,5.0,64,0.00,,,0.17,,2013-05-16 23:24:00,
2013-05-16 16:34:00,69.0,54.0,29.90,South,180,1.0,4.0,59,0.00,,,0.17,,2013-05-16 23:34:00,
2013-05-16 16:45:00,69.0,54.0,29.90,South,180,1.0,4.0,59,0.00,,,0.17,,2013-05-16 23:45:00,
2013-05-16 16:54:00,68.0,54.0,29.90,NE,45,2.0,5.0,62,0.00,,,0.17,,2013-05-16 23:54:00,
2013-05-16 17:02:00,68.0,55.0,29.90,NE,45,1.0,4.0,63,0.00,,,0.17,,2013-05-17 00:02:00,
2013-05-16 17:13:00,68.0,55.0,29.90,NE,45,1.0,4.0,63,0.00,,,0.17,,2013-05-17 00:13:00,
2013-05-16 17:22:00,67.0,54.0,29.90,NE,45,1.0,4.0,63,0.00,,,0.17,,2013-05-17 00:22:00,
2013-05-16 17:33:00,67.0,54.0,29.90,West,270,0.0,3.0,64,0.00,,,0.17,,2013-05-17 00:33:00,
2013-05-16 17:43:00,67.0,54.0,29.90,West,270,0.0,3.0,64,0.00,,,0.17,,2013-05-17 00:43:00,
2013-05-16 17:52:00,67.0,54.0,29.89,NE,45,1.0,3.0,63,0.00,,,0.17,,2013-05-17 00:52:00,
2013-05-16 18:03:00,68.0,55.0,29.89,NE,45,1.0,4.0,63,0.00,,,0.17,,2013-05-17 01:03:00,
2013-05-16 18:12:00,68.0,55.0,29.89,NE,45,1.0,4.0,63,0.00,,,0.17,,2013-05-17 01:12:00,
2013-05-16 18:23:00,67.0,54.0,29.89,NE,45,1.0,6.0,63,0.00,,,0.17,,2013-05-17 01:23:00,
2013-05-16 18:31:00,65.0,54.0,29.89,North,-999,0.0,0.0,68,0.00,,,0.17,,2013-05-17 01:31:00,
2013-05-16 18:43:00,65.0,54.0,29.89,North,-999,0.0,0.0,68,0.00,,,0.17,,2013-05-17 01:43:00,
2013-05-16 18:52:00,65.0,55.0,29.89,SSW,202,0.0,1.0,69,0.00,,,0.17,,2013-05-17 01:52:00,
2013-05-16 19:02:00,64.0,54.0,29.89,ENE,67,0.0,2.0,69,0.00,,,0.16,,2013-05-17 02:02:00,
2013-05-16 19:11:00,64.0,54.0,29.89,ENE,67,0.0,2.0,69,0.00,,,0.16,,2013-05-17 02:11:00,
2013-05-16 19:21:00,63.0,53.0,29.89,ESE,112,0.0,3.0,71,0.00,,,0.15,,2013-05-17 02:21:00,
2013-05-16 19:32:00,62.0,54.0,29.89,ENE,67,0.0,2.0,75,0.00,,,0.13,,2013-05-17 02:32:00,
2013-05-16 19:41:00,62.0,54.0,29.89,ENE,67,0.0,2.0,75,0.00,,,0.13,,2013-05-17 02:41:00,
2013-05-16 19:52:00,61.0,53.0,29.89,SW,225,0.0,2.0,76,0.00,,,0.13,,2013-05-17 02:52:00,
2013-05-16 20:01:00,60.0,53.0,29.90,West,270,0.0,1.0,79,0.00,,,0.12,,2013-05-17 03:01:00,
2013-05-16 20:11:00,60.0,53.0,29.90,West,270,0.0,1.0,79,0.00,,,0.12,,2013-05-17 03:11:00,
2013-05-16 20:22:00,59.0,52.0,29.90,SSE,157,0.0,2.0,79,0.00,,,0.11,,2013-05-17 03:22:00,
2013-05-16 20:33:00,59.0,53.0,29.91,SW,225,0.0,1.0,81,0.00,,,0.10,,2013-05-17 03:33:00,
2013-05-16 20:43:00,59.0,53.0,29.91,SW,225,0.0,1.0,81,0.00,,,0.10,,2013-05-17 03:43:00,
2013-05-16 20:52:00,58.0,53.0,29.91,North,-999,0.0,0.0,83,0.00,,,0.10,,2013-05-17 03:52:00,
2013-05-16 21:02:00,57.0,53.0,29.92,North,-999,0.0,0.0,85,0.00,,,0.09,,2013-05-17 04:02:00,
2013-05-16 21:12:00,57.0,53.0,29.92,North,-999,0.0,0.0,85,0.00,,,0.09,,2013-05-17 04:12:00,
2013-05-16 21:23:00,56.0,52.0,29.92,North,-999,0.0,0.0,86,0.00,,,0.09,,2013-05-17 04:23:00,
2013-05-16 21:33:00,55.0,52.0,29.93,SSW,202,0.0,1.0,89,0.00,,,0.07,,2013-05-17 04:33:00,
2013-05-16 21:43:00,55.0,52.0,29.93,SSW,202,0.0,1.0,89,0.00,,,0.07,,2013-05-17 04:43:00,
2013-05-16 21:53:00,55.0,52.0,29.93,North,-999,0.0,0.0,90,0.00,,,0.07,,2013-05-17 04:53:00,
2013-05-16 22:02:00,54.0,51.0,29.94,North,-999,0.0,0.0,90,0.00,,,0.06,,2013-05-17 05:02:00,
2013-05-16 22:13:00,54.0,51.0,29.94,North,-999,0.0,0.0,90,0.00,,,0.06,,2013-05-17 05:13:00,
2013-05-16 22:21:00,54.0,51.0,29.94,North,-999,0.0,0.0,91,0.00,,,0.06,,2013-05-17 05:21:00,
2013-05-16 22:32:00,53.0,51.0,29.95,South,180,0.0,1.0,93,0.00,,,0.06,,2013-05-17 05:32:00,
2013-05-16 22:42:00,53.0,51.0,29.95,South,180,0.0,1.0,93,0.00,,,0.06,,2013-05-17 05:42:00,
2013-05-16 22:51:00,53.0,51.0,29.95,North,-999,0.0,0.0,92,0.00,,,0.06,,2013-05-17 05:51:00,
2013-05-16 23:01:00,53.0,51.0,29.96,South,180,0.0,1.0,93,0.00,,,0.06,,2013-05-17 06:01:00,
2013-05-16 23:11:00,53.0,51.0,29.96,South,180,0.0,1.0,93,0.00,,,0.06,,2013-05-17 06:11:00,
2013-05-16 23:21:00,53.0,51.0,29.96,South,180,0.0,1.0,93,0.00,,,0.06,,2013-05-17 06:21:00,
2013-05-16 23:32:00,54.0,52.0,29.96,North,-999,0.0,0.0,92,0.00,,,0.06,,2013-05-17 06:32:00,
2013-05-16 23:42:00,54.0,52.0,29.96,North,-999,0.0,0.0,92,0.00,,,0.06,,2013-05-17 06:42:00,
2013-05-16 23:51:00,54.0,52.0,29.96,North,-999,0.0,0.0,92,0.00,,,0.06,,2013-05-17 06:51:00,